sensor_id;sensor_type;location;lat;lon;timestamp;temperature;humidity
14875;DHT22;7529;48.170;17.138;2022-09-27T00:01:42;13.80;61.60
14875;DHT22;7529;48.170;17.138;2022-09-27T00:06:10;13.70;61.90
14875;DHT22;7529;48.170;17.138;2022-09-27T00:10:23;13.60;62.60
14875;DHT22;7529;48.170;17.138;2022-09-27T00:14:34;13.50;62.30
14875;DHT22;7529;48.170;17.138;2022-09-27T00:18:47;13.40;62.50
14875;DHT22;7529;48.170;17.138;2022-09-27T00:22:58;13.40;62.90
14875;DHT22;7529;48.170;17.138;2022-09-27T00:27:09;13.30;63.10
14875;DHT22;7529;48.170;17.138;2022-09-27T00:31:26;13.20;63.40
14875;DHT22;7529;48.170;17.138;2022-09-27T00:35:42;13.00;63.90
14875;DHT22;7529;48.170;17.138;2022-09-27T00:39:53;12.90;64.10
14875;DHT22;7529;48.170;17.138;2022-09-27T00:48:39;13.00;65.20
14875;DHT22;7529;48.170;17.138;2022-09-27T00:57:31;13.00;66.30
14875;DHT22;7529;48.170;17.138;2022-09-27T01:01:43;12.90;65.80
14875;DHT22;7529;48.170;17.138;2022-09-27T01:05:54;12.80;66.20
14875;DHT22;7529;48.170;17.138;2022-09-27T01:10:06;12.80;66.60
14875;DHT22;7529;48.170;17.138;2022-09-27T01:14:37;12.80;66.90
14875;DHT22;7529;48.170;17.138;2022-09-27T01:23:58;12.90;67.90
14875;DHT22;7529;48.170;17.138;2022-09-27T01:42:01;13.10;68.60
14875;DHT22;7529;48.170;17.138;2022-09-27T01:46:51;13.10;69.00
14875;DHT22;7529;48.170;17.138;2022-09-27T01:51:37;12.90;69.20
14875;DHT22;7529;48.170;17.138;2022-09-27T01:55:54;12.70;70.40
14875;DHT22;7529;48.170;17.138;2022-09-27T02:00:27;12.40;70.20
14875;DHT22;7529;48.170;17.138;2022-09-27T02:04:40;12.20;70.60
14875;DHT22;7529;48.170;17.138;2022-09-27T02:09:08;12.10;71.50
14875;DHT22;7529;48.170;17.138;2022-09-27T02:13:55;11.90;72.30
14875;DHT22;7529;48.170;17.138;2022-09-27T02:23:25;11.80;73.90
14875;DHT22;7529;48.170;17.138;2022-09-27T02:32:24;12.00;74.60
14875;DHT22;7529;48.170;17.138;2022-09-27T02:36:37;12.10;75.10
14875;DHT22;7529;48.170;17.138;2022-09-27T02:40:48;12.20;75.00
14875;DHT22;7529;48.170;17.138;2022-09-27T02:45:02;12.30;75.30
14875;DHT22;7529;48.170;17.138;2022-09-27T02:54:18;12.40;76.30
14875;DHT22;7529;48.170;17.138;2022-09-27T02:59:19;12.40;76.40
14875;DHT22;7529;48.170;17.138;2022-09-27T03:08:33;12.70;76.90
14875;DHT22;7529;48.170;17.138;2022-09-27T03:12:44;12.80;76.50
14875;DHT22;7529;48.170;17.138;2022-09-27T03:16:55;12.90;76.50
14875;DHT22;7529;48.170;17.138;2022-09-27T03:21:36;13.00;76.20
14875;DHT22;7529;48.170;17.138;2022-09-27T03:25:49;13.00;76.10
14875;DHT22;7529;48.170;17.138;2022-09-27T03:30:02;13.10;75.90
14875;DHT22;7529;48.170;17.138;2022-09-27T03:34:14;13.20;75.90
14875;DHT22;7529;48.170;17.138;2022-09-27T03:38:25;13.20;75.60
14875;DHT22;7529;48.170;17.138;2022-09-27T03:42:37;13.20;75.60
14875;DHT22;7529;48.170;17.138;2022-09-27T03:46:49;13.30;75.60
14875;DHT22;7529;48.170;17.138;2022-09-27T03:51:01;13.40;75.50
14875;DHT22;7529;48.170;17.138;2022-09-27T03:55:14;13.40;75.50
14875;DHT22;7529;48.170;17.138;2022-09-27T03:59:25;13.50;75.60
14875;DHT22;7529;48.170;17.138;2022-09-27T04:03:57;13.50;75.50
14875;DHT22;7529;48.170;17.138;2022-09-27T04:08:17;13.40;75.50
14875;DHT22;7529;48.170;17.138;2022-09-27T04:12:30;13.40;75.70
14875;DHT22;7529;48.170;17.138;2022-09-27T04:16:43;13.40;75.90
14875;DHT22;7529;48.170;17.138;2022-09-27T04:21:13;13.40;76.20
14875;DHT22;7529;48.170;17.138;2022-09-27T04:25:31;13.40;76.40
14875;DHT22;7529;48.170;17.138;2022-09-27T04:29:48;13.40;76.50
14875;DHT22;7529;48.170;17.138;2022-09-27T04:34:19;13.40;76.70
14875;DHT22;7529;48.170;17.138;2022-09-27T04:38:50;13.40;76.70
14875;DHT22;7529;48.170;17.138;2022-09-27T04:43:06;13.50;76.70
14875;DHT22;7529;48.170;17.138;2022-09-27T04:47:17;13.60;76.90
14875;DHT22;7529;48.170;17.138;2022-09-27T04:51:30;13.60;76.80
14875;DHT22;7529;48.170;17.138;2022-09-27T04:55:48;13.60;76.80
14875;DHT22;7529;48.170;17.138;2022-09-27T05:00:01;13.60;77.20
14875;DHT22;7529;48.170;17.138;2022-09-27T05:04:16;13.60;77.00
14875;DHT22;7529;48.170;17.138;2022-09-27T05:08:32;13.60;77.40
14875;DHT22;7529;48.170;17.138;2022-09-27T05:13:13;13.60;77.50
14875;DHT22;7529;48.170;17.138;2022-09-27T05:17:25;13.60;77.50
14875;DHT22;7529;48.170;17.138;2022-09-27T05:21:55;13.70;77.60
14875;DHT22;7529;48.170;17.138;2022-09-27T05:26:07;13.70;77.80
14875;DHT22;7529;48.170;17.138;2022-09-27T05:30:19;13.70;77.90
14875;DHT22;7529;48.170;17.138;2022-09-27T05:34:38;13.70;78.00
14875;DHT22;7529;48.170;17.138;2022-09-27T05:38:49;13.70;78.10
14875;DHT22;7529;48.170;17.138;2022-09-27T05:43:03;13.80;78.20
14875;DHT22;7529;48.170;17.138;2022-09-27T05:47:14;13.80;78.20
14875;DHT22;7529;48.170;17.138;2022-09-27T05:51:27;13.80;78.40
14875;DHT22;7529;48.170;17.138;2022-09-27T05:55:39;13.70;78.50
14875;DHT22;7529;48.170;17.138;2022-09-27T05:59:50;13.70;78.80
14875;DHT22;7529;48.170;17.138;2022-09-27T06:04:04;13.70;79.00
14875;DHT22;7529;48.170;17.138;2022-09-27T06:08:36;13.70;79.20
14875;DHT22;7529;48.170;17.138;2022-09-27T06:13:03;13.70;79.40
14875;DHT22;7529;48.170;17.138;2022-09-27T06:17:18;13.70;79.90
14875;DHT22;7529;48.170;17.138;2022-09-27T06:21:31;13.70;80.30
14875;DHT22;7529;48.170;17.138;2022-09-27T06:25:45;13.70;79.60
14875;DHT22;7529;48.170;17.138;2022-09-27T06:30:17;13.80;79.90
14875;DHT22;7529;48.170;17.138;2022-09-27T06:34:34;13.90;79.90
14875;DHT22;7529;48.170;17.138;2022-09-27T06:38:46;14.00;80.00
14875;DHT22;7529;48.170;17.138;2022-09-27T06:43:08;14.10;80.00
14875;DHT22;7529;48.170;17.138;2022-09-27T06:47:59;14.10;80.10
14875;DHT22;7529;48.170;17.138;2022-09-27T06:52:49;14.10;80.60
14875;DHT22;7529;48.170;17.138;2022-09-27T06:57:04;14.10;80.20
14875;DHT22;7529;48.170;17.138;2022-09-27T07:01:17;14.20;80.50
14875;DHT22;7529;48.170;17.138;2022-09-27T07:05:54;14.20;80.90
14875;DHT22;7529;48.170;17.138;2022-09-27T07:10:28;14.10;81.20
14875;DHT22;7529;48.170;17.138;2022-09-27T07:14:40;14.10;81.90
14875;DHT22;7529;48.170;17.138;2022-09-27T07:18:55;14.10;82.00
14875;DHT22;7529;48.170;17.138;2022-09-27T07:23:09;14.10;82.40
14875;DHT22;7529;48.170;17.138;2022-09-27T07:27:22;14.00;82.70
14875;DHT22;7529;48.170;17.138;2022-09-27T07:31:36;13.90;82.80
14875;DHT22;7529;48.170;17.138;2022-09-27T07:35:48;13.90;83.30
14875;DHT22;7529;48.170;17.138;2022-09-27T07:40:00;13.90;83.70
14875;DHT22;7529;48.170;17.138;2022-09-27T07:44:14;13.90;84.10
14875;DHT22;7529;48.170;17.138;2022-09-27T07:48:50;14.00;84.00
14875;DHT22;7529;48.170;17.138;2022-09-27T07:53:20;14.00;84.30
14875;DHT22;7529;48.170;17.138;2022-09-27T07:58:08;14.10;84.20
14875;DHT22;7529;48.170;17.138;2022-09-27T08:02:21;14.20;85.50
14875;DHT22;7529;48.170;17.138;2022-09-27T08:06:34;14.40;84.70
14875;DHT22;7529;48.170;17.138;2022-09-27T08:10:45;14.60;84.50
14875;DHT22;7529;48.170;17.138;2022-09-27T08:14:57;14.50;84.70
14875;DHT22;7529;48.170;17.138;2022-09-27T08:19:11;14.50;84.90
14875;DHT22;7529;48.170;17.138;2022-09-27T08:23:56;14.40;84.80
14875;DHT22;7529;48.170;17.138;2022-09-27T08:28:21;14.40;84.70
14875;DHT22;7529;48.170;17.138;2022-09-27T08:32:41;14.40;84.90
14875;DHT22;7529;48.170;17.138;2022-09-27T08:36:52;14.40;85.10
14875;DHT22;7529;48.170;17.138;2022-09-27T08:41:37;14.50;85.10
14875;DHT22;7529;48.170;17.138;2022-09-27T08:46:14;14.50;86.00
14875;DHT22;7529;48.170;17.138;2022-09-27T08:50:34;14.40;86.00
14875;DHT22;7529;48.170;17.138;2022-09-27T08:54:51;14.20;85.60
14875;DHT22;7529;48.170;17.138;2022-09-27T08:59:12;13.90;86.80
14875;DHT22;7529;48.170;17.138;2022-09-27T09:03:28;13.90;88.10
14875;DHT22;7529;48.170;17.138;2022-09-27T09:12:52;13.80;89.60
14875;DHT22;7529;48.170;17.138;2022-09-27T09:18:05;13.80;89.50
14875;DHT22;7529;48.170;17.138;2022-09-27T09:36:51;14.60;89.40
14875;DHT22;7529;48.170;17.138;2022-09-27T09:41:10;14.70;89.40
14875;DHT22;7529;48.170;17.138;2022-09-27T09:45:30;14.90;88.90
14875;DHT22;7529;48.170;17.138;2022-09-27T09:49:51;15.00;88.90
14875;DHT22;7529;48.170;17.138;2022-09-27T09:54:50;15.10;88.90
14875;DHT22;7529;48.170;17.138;2022-09-27T09:59:16;15.20;89.90
14875;DHT22;7529;48.170;17.138;2022-09-27T10:03:34;15.20;89.40
14875;DHT22;7529;48.170;17.138;2022-09-27T10:07:48;15.20;89.30
14875;DHT22;7529;48.170;17.138;2022-09-27T10:12:01;14.60;89.00
14875;DHT22;7529;48.170;17.138;2022-09-27T10:16:18;13.80;89.80
14875;DHT22;7529;48.170;17.138;2022-09-27T10:20:46;13.60;90.20
14875;DHT22;7529;48.170;17.138;2022-09-27T10:25:04;13.70;90.70
14875;DHT22;7529;48.170;17.138;2022-09-27T10:29:35;14.00;90.20
14875;DHT22;7529;48.170;17.138;2022-09-27T10:34:01;14.30;89.80
14875;DHT22;7529;48.170;17.138;2022-09-27T10:38:32;14.40;89.40
14875;DHT22;7529;48.170;17.138;2022-09-27T10:43:01;14.40;89.20
14875;DHT22;7529;48.170;17.138;2022-09-27T10:47:33;14.60;89.20
14875;DHT22;7529;48.170;17.138;2022-09-27T10:51:58;14.80;89.00
14875;DHT22;7529;48.170;17.138;2022-09-27T10:56:36;14.90;89.20
14875;DHT22;7529;48.170;17.138;2022-09-27T11:01:05;15.10;89.40
14875;DHT22;7529;48.170;17.138;2022-09-27T11:06:30;15.30;89.20
14875;DHT22;7529;48.170;17.138;2022-09-27T11:12:04;15.60;88.90
14875;DHT22;7529;48.170;17.138;2022-09-27T11:22:07;16.70;85.40
14875;DHT22;7529;48.170;17.138;2022-09-27T12:09:19;17.80;75.10
14875;DHT22;7529;48.170;17.138;2022-09-27T12:19:01;16.90;76.00
14875;DHT22;7529;48.170;17.138;2022-09-27T12:23:53;16.80;75.90
14875;DHT22;7529;48.170;17.138;2022-09-27T12:29:03;16.90;75.70
14875;DHT22;7529;48.170;17.138;2022-09-27T12:34:17;17.00;75.20
14875;DHT22;7529;48.170;17.138;2022-09-27T12:43:20;17.80;73.90
14875;DHT22;7529;48.170;17.138;2022-09-27T12:52:34;17.50;73.80
14875;DHT22;7529;48.170;17.138;2022-09-27T13:15:35;16.50;74.20
14875;DHT22;7529;48.170;17.138;2022-09-27T13:19:49;16.60;74.60
14875;DHT22;7529;48.170;17.138;2022-09-27T13:24:01;16.50;74.50
14875;DHT22;7529;48.170;17.138;2022-09-27T13:38:22;16.70;74.30
14875;DHT22;7529;48.170;17.138;2022-09-27T13:42:48;16.70;74.20
14875;DHT22;7529;48.170;17.138;2022-09-27T13:47:33;16.80;74.20
14875;DHT22;7529;48.170;17.138;2022-09-27T13:52:28;16.60;74.40
14875;DHT22;7529;48.170;17.138;2022-09-27T13:56:55;16.60;74.80
14875;DHT22;7529;48.170;17.138;2022-09-27T14:01:48;16.50;74.60
14875;DHT22;7529;48.170;17.138;2022-09-27T14:06:06;16.70;74.70
14875;DHT22;7529;48.170;17.138;2022-09-27T14:10:20;16.70;74.40
14875;DHT22;7529;48.170;17.138;2022-09-27T14:14:35;16.70;74.30
14875;DHT22;7529;48.170;17.138;2022-09-27T14:18:56;16.60;74.30
14875;DHT22;7529;48.170;17.138;2022-09-27T14:23:24;16.90;74.20
14875;DHT22;7529;48.170;17.138;2022-09-27T14:27:36;17.00;73.80
14875;DHT22;7529;48.170;17.138;2022-09-27T14:32:12;16.90;73.70
14875;DHT22;7529;48.170;17.138;2022-09-27T14:36:48;16.90;73.60
14875;DHT22;7529;48.170;17.138;2022-09-27T14:41:37;16.80;73.80
14875;DHT22;7529;48.170;17.138;2022-09-27T14:45:52;16.60;73.80
14875;DHT22;7529;48.170;17.138;2022-09-27T14:50:23;16.60;74.00
14875;DHT22;7529;48.170;17.138;2022-09-27T14:54:37;16.60;74.00
14875;DHT22;7529;48.170;17.138;2022-09-27T14:58:55;16.40;73.90
14875;DHT22;7529;48.170;17.138;2022-09-27T15:03:23;16.20;74.20
14875;DHT22;7529;48.170;17.138;2022-09-27T15:07:38;16.10;74.30
14875;DHT22;7529;48.170;17.138;2022-09-27T15:11:57;16.10;74.30
14875;DHT22;7529;48.170;17.138;2022-09-27T15:16:18;15.90;74.30
14875;DHT22;7529;48.170;17.138;2022-09-27T15:20:33;15.90;74.20
14875;DHT22;7529;48.170;17.138;2022-09-27T15:24:45;15.80;74.30
14875;DHT22;7529;48.170;17.138;2022-09-27T15:28:57;15.60;74.30
14875;DHT22;7529;48.170;17.138;2022-09-27T15:33:24;15.50;74.10
14875;DHT22;7529;48.170;17.138;2022-09-27T15:37:38;15.40;74.10
14875;DHT22;7529;48.170;17.138;2022-09-27T15:42:10;15.40;74.10
14875;DHT22;7529;48.170;17.138;2022-09-27T15:46:35;15.40;73.90
14875;DHT22;7529;48.170;17.138;2022-09-27T15:50:48;15.40;73.70
14875;DHT22;7529;48.170;17.138;2022-09-27T15:54:59;15.50;73.80
14875;DHT22;7529;48.170;17.138;2022-09-27T15:59:26;15.40;73.70
14875;DHT22;7529;48.170;17.138;2022-09-27T16:03:38;15.30;74.00
14875;DHT22;7529;48.170;17.138;2022-09-27T16:07:50;15.10;73.90
14875;DHT22;7529;48.170;17.138;2022-09-27T16:12:07;15.00;74.00
14875;DHT22;7529;48.170;17.138;2022-09-27T16:16:36;14.90;74.10
14875;DHT22;7529;48.170;17.138;2022-09-27T16:20:50;14.70;74.10
14875;DHT22;7529;48.170;17.138;2022-09-27T16:25:01;14.50;74.20
14875;DHT22;7529;48.170;17.138;2022-09-27T16:29:14;14.40;74.60
14875;DHT22;7529;48.170;17.138;2022-09-27T16:33:25;14.30;74.90
14875;DHT22;7529;48.170;17.138;2022-09-27T16:37:37;14.10;75.00
14875;DHT22;7529;48.170;17.138;2022-09-27T16:41:48;14.00;75.10
14875;DHT22;7529;48.170;17.138;2022-09-27T16:46:06;13.90;75.20
14875;DHT22;7529;48.170;17.138;2022-09-27T16:50:21;13.90;75.30
14875;DHT22;7529;48.170;17.138;2022-09-27T16:54:51;13.90;75.20
14875;DHT22;7529;48.170;17.138;2022-09-27T16:59:03;13.80;75.20
14875;DHT22;7529;48.170;17.138;2022-09-27T17:03:14;13.80;75.10
14875;DHT22;7529;48.170;17.138;2022-09-27T17:07:25;13.80;74.80
14875;DHT22;7529;48.170;17.138;2022-09-27T17:11:37;13.80;74.90
14875;DHT22;7529;48.170;17.138;2022-09-27T17:15:48;13.80;74.80
14875;DHT22;7529;48.170;17.138;2022-09-27T17:20:00;13.70;74.90
14875;DHT22;7529;48.170;17.138;2022-09-27T17:24:11;13.70;75.60
14875;DHT22;7529;48.170;17.138;2022-09-27T17:28:23;13.70;74.80
14875;DHT22;7529;48.170;17.138;2022-09-27T17:32:34;13.70;74.80
14875;DHT22;7529;48.170;17.138;2022-09-27T17:36:45;13.70;74.80
14875;DHT22;7529;48.170;17.138;2022-09-27T17:41:03;13.70;75.40
14875;DHT22;7529;48.170;17.138;2022-09-27T17:45:16;13.60;74.80
14875;DHT22;7529;48.170;17.138;2022-09-27T17:49:27;13.60;74.80
14875;DHT22;7529;48.170;17.138;2022-09-27T17:53:57;13.50;74.80
14875;DHT22;7529;48.170;17.138;2022-09-27T17:58:08;13.40;74.90
14875;DHT22;7529;48.170;17.138;2022-09-27T18:02:21;13.40;75.00
14875;DHT22;7529;48.170;17.138;2022-09-27T18:06:32;13.40;75.10
14875;DHT22;7529;48.170;17.138;2022-09-27T18:10:44;13.40;75.00
14875;DHT22;7529;48.170;17.138;2022-09-27T18:14:56;13.40;74.80
14875;DHT22;7529;48.170;17.138;2022-09-27T18:19:11;13.40;74.50
14875;DHT22;7529;48.170;17.138;2022-09-27T18:23:25;13.50;74.30
14875;DHT22;7529;48.170;17.138;2022-09-27T18:27:36;13.50;73.60
14875;DHT22;7529;48.170;17.138;2022-09-27T18:31:50;13.50;73.10
14875;DHT22;7529;48.170;17.138;2022-09-27T18:40:18;13.50;72.10
14875;DHT22;7529;48.170;17.138;2022-09-27T18:44:30;13.40;71.70
14875;DHT22;7529;48.170;17.138;2022-09-27T18:48:42;13.50;71.30
14875;DHT22;7529;48.170;17.138;2022-09-27T18:52:53;13.40;70.90
14875;DHT22;7529;48.170;17.138;2022-09-27T18:57:04;13.40;70.40
14875;DHT22;7529;48.170;17.138;2022-09-27T19:01:16;13.30;70.40
14875;DHT22;7529;48.170;17.138;2022-09-27T19:05:27;13.30;70.50
14875;DHT22;7529;48.170;17.138;2022-09-27T19:09:39;13.20;70.20
14875;DHT22;7529;48.170;17.138;2022-09-27T19:13:51;13.20;70.00
14875;DHT22;7529;48.170;17.138;2022-09-27T19:18:04;13.20;69.90
14875;DHT22;7529;48.170;17.138;2022-09-27T19:22:15;13.10;69.70
14875;DHT22;7529;48.170;17.138;2022-09-27T19:26:26;13.10;69.70
14875;DHT22;7529;48.170;17.138;2022-09-27T19:30:39;13.10;69.60
14875;DHT22;7529;48.170;17.138;2022-09-27T19:34:51;13.00;69.30
14875;DHT22;7529;48.170;17.138;2022-09-27T19:39:02;13.00;69.20
14875;DHT22;7529;48.170;17.138;2022-09-27T19:43:14;12.90;69.30
14875;DHT22;7529;48.170;17.138;2022-09-27T19:47:25;12.80;69.30
14875;DHT22;7529;48.170;17.138;2022-09-27T19:51:36;12.70;69.30
14875;DHT22;7529;48.170;17.138;2022-09-27T19:55:57;12.60;69.40
14875;DHT22;7529;48.170;17.138;2022-09-27T20:00:09;12.60;69.50
14875;DHT22;7529;48.170;17.138;2022-09-27T20:04:21;12.50;69.60
14875;DHT22;7529;48.170;17.138;2022-09-27T20:08:32;12.50;69.40
14875;DHT22;7529;48.170;17.138;2022-09-27T20:12:43;12.60;69.40
14875;DHT22;7529;48.170;17.138;2022-09-27T20:16:58;12.60;69.00
14875;DHT22;7529;48.170;17.138;2022-09-27T20:21:10;12.60;68.70
14875;DHT22;7529;48.170;17.138;2022-09-27T20:25:21;12.70;68.40
14875;DHT22;7529;48.170;17.138;2022-09-27T20:29:33;12.70;68.10
14875;DHT22;7529;48.170;17.138;2022-09-27T20:33:44;12.70;67.70
14875;DHT22;7529;48.170;17.138;2022-09-27T20:38:01;12.70;67.50
14875;DHT22;7529;48.170;17.138;2022-09-27T20:42:12;12.70;67.30
14875;DHT22;7529;48.170;17.138;2022-09-27T20:46:24;12.70;67.40
14875;DHT22;7529;48.170;17.138;2022-09-27T20:50:35;12.60;67.30
14875;DHT22;7529;48.170;17.138;2022-09-27T20:54:46;12.50;67.40
14875;DHT22;7529;48.170;17.138;2022-09-27T20:58:59;12.40;67.50
14875;DHT22;7529;48.170;17.138;2022-09-27T21:03:12;12.20;67.60
14875;DHT22;7529;48.170;17.138;2022-09-27T21:07:23;12.10;67.80
14875;DHT22;7529;48.170;17.138;2022-09-27T21:11:35;12.00;68.10
14875;DHT22;7529;48.170;17.138;2022-09-27T21:15:47;11.90;68.20
14875;DHT22;7529;48.170;17.138;2022-09-27T21:19:58;11.80;68.30
14875;DHT22;7529;48.170;17.138;2022-09-27T21:24:11;11.80;68.50
14875;DHT22;7529;48.170;17.138;2022-09-27T21:28:22;11.70;68.50
14875;DHT22;7529;48.170;17.138;2022-09-27T21:32:33;11.70;68.60
14875;DHT22;7529;48.170;17.138;2022-09-27T21:36:44;11.60;68.80
14875;DHT22;7529;48.170;17.138;2022-09-27T21:40:57;11.50;69.00
14875;DHT22;7529;48.170;17.138;2022-09-27T21:45:11;11.40;69.10
14875;DHT22;7529;48.170;17.138;2022-09-27T21:49:22;11.30;69.30
14875;DHT22;7529;48.170;17.138;2022-09-27T21:53:34;11.30;69.40
14875;DHT22;7529;48.170;17.138;2022-09-27T21:57:46;11.30;70.20
14875;DHT22;7529;48.170;17.138;2022-09-27T22:01:57;11.20;69.60
14875;DHT22;7529;48.170;17.138;2022-09-27T22:06:11;11.10;69.80
14875;DHT22;7529;48.170;17.138;2022-09-27T22:10:26;11.10;70.00
14875;DHT22;7529;48.170;17.138;2022-09-27T22:14:38;11.00;70.10
14875;DHT22;7529;48.170;17.138;2022-09-27T22:18:51;10.90;70.30
14875;DHT22;7529;48.170;17.138;2022-09-27T22:23:04;10.80;70.80
14875;DHT22;7529;48.170;17.138;2022-09-27T22:27:15;10.70;70.90
14875;DHT22;7529;48.170;17.138;2022-09-27T22:31:27;10.60;71.20
14875;DHT22;7529;48.170;17.138;2022-09-27T22:35:47;10.60;71.40
14875;DHT22;7529;48.170;17.138;2022-09-27T22:39:59;10.50;71.60
14875;DHT22;7529;48.170;17.138;2022-09-27T22:44:10;10.40;71.80
14875;DHT22;7529;48.170;17.138;2022-09-27T22:48:21;10.30;72.40
14875;DHT22;7529;48.170;17.138;2022-09-27T22:52:33;10.30;72.50
14875;DHT22;7529;48.170;17.138;2022-09-27T22:56:44;10.30;72.60
14875;DHT22;7529;48.170;17.138;2022-09-27T23:00:55;10.30;72.70
14875;DHT22;7529;48.170;17.138;2022-09-27T23:05:07;10.30;72.90
14875;DHT22;7529;48.170;17.138;2022-09-27T23:09:19;10.30;73.10
14875;DHT22;7529;48.170;17.138;2022-09-27T23:13:34;10.40;73.40
14875;DHT22;7529;48.170;17.138;2022-09-27T23:17:51;10.50;73.30
14875;DHT22;7529;48.170;17.138;2022-09-27T23:22:04;10.70;73.20
14875;DHT22;7529;48.170;17.138;2022-09-27T23:26:16;10.60;73.30
14875;DHT22;7529;48.170;17.138;2022-09-27T23:30:27;10.70;73.50
14875;DHT22;7529;48.170;17.138;2022-09-27T23:34:39;10.70;73.60
14875;DHT22;7529;48.170;17.138;2022-09-27T23:38:53;10.70;73.60
14875;DHT22;7529;48.170;17.138;2022-09-27T23:43:05;10.80;73.70
14875;DHT22;7529;48.170;17.138;2022-09-27T23:47:16;10.80;73.50
14875;DHT22;7529;48.170;17.138;2022-09-27T23:51:27;10.70;73.70
14875;DHT22;7529;48.170;17.138;2022-09-27T23:55:39;10.80;73.70
14875;DHT22;7529;48.170;17.138;2022-09-27T23:59:50;10.90;73.50
